Time;durP1;ratioP1;P1;durP2;ratioP2;P2;SDS_P1;SDS_P2;PMS_P1;PMS_P2;Temp;Humidity;BMP_temperature;BMP_pressure;BME280_temperature;BME280_humidity;BME280_pressure;Samples;Min_cycle;Max_cycle;Signal;HPM_P1;HPM_P2
2023/02/14 00:01:39;;;;;;;2.70;2.50;;;;;;;;;;105240;1261;62838;-63
2023/02/14 00:04:08;;;;;;;2.70;2.40;;;;;;;;;;105143;1260;62891;-63
2023/02/14 00:06:37;;;;;;;3.30;2.30;;;;;;;;;;105264;1252;62822;-62
2023/02/14 00:09:06;;;;;;;2.40;2.20;;;;;;;;;;105466;1249;62838;-62
2023/02/14 00:11:34;;;;;;;3.90;2.70;;;;;;;;;;105248;1250;62790;-63
2023/02/14 00:16:51;;;;;;;2.60;2.30;;;;;;;;;;105242;1260;62044;-62
2023/02/14 00:19:19;;;;;;;3.00;2.60;;;;;;;;;;105122;1252;62824;-64
2023/02/14 00:21:47;;;;;;;3.30;2.70;;;;;;;;;;105233;1247;62840;-62
2023/02/14 00:24:23;;;;;;;4.00;2.80;;;;;;;;;;105181;1248;62830;-62
2023/02/14 00:26:52;;;;;;;3.20;2.20;;;;;;;;;;105287;1252;62735;-63
2023/02/14 00:29:21;;;;;;;2.40;2.20;;;;;;;;;;105174;1250;62824;-63
2023/02/14 00:31:51;;;;;;;2.20;2.00;;;;;;;;;;105312;1260;62118;-63
2023/02/14 00:34:19;;;;;;;4.40;2.40;;;;;;;;;;105140;1255;62760;-64
2023/02/14 00:36:48;;;;;;;3.60;2.60;;;;;;;;;;105313;1264;62736;-63
2023/02/14 00:39:17;;;;;;;2.50;2.20;;;;;;;;;;105335;1248;62834;-63
2023/02/14 00:41:45;;;;;;;3.00;2.40;;;;;;;;;;105427;1251;62878;-64
2023/02/14 00:44:16;;;;;;;3.60;2.70;;;;;;;;;;105190;1256;62924;-63
2023/02/14 00:46:44;;;;;;;2.50;2.30;;;;;;;;;;105426;1250;62804;-63
2023/02/14 00:49:15;;;;;;;2.40;2.10;;;;;;;;;;105230;1248;62763;-63
2023/02/14 00:51:43;;;;;;;3.50;2.40;;;;;;;;;;105229;1264;62824;-64
2023/02/14 00:54:11;;;;;;;3.80;2.40;;;;;;;;;;104797;1262;62908;-63
2023/02/14 00:56:39;;;;;;;3.00;2.10;;;;;;;;;;105277;1254;62841;-63
2023/02/14 00:59:11;;;;;;;2.60;2.30;;;;;;;;;;105245;1253;63066;-62
2023/02/14 01:01:42;;;;;;;2.50;2.10;;;;;;;;;;105286;1264;62926;-68
2023/02/14 01:04:10;;;;;;;2.20;2.00;;;;;;;;;;105254;1248;62804;-63
2023/02/14 01:06:38;;;;;;;2.30;1.90;;;;;;;;;;105232;1256;62283;-65
2023/02/14 01:09:06;;;;;;;2.20;2.00;;;;;;;;;;105220;1264;62843;-64
2023/02/14 01:11:35;;;;;;;3.00;2.10;;;;;;;;;;105114;1253;62802;-66
2023/02/14 01:14:04;;;;;;;3.10;2.00;;;;;;;;;;105205;1263;62855;-64
2023/02/14 01:16:32;;;;;;;3.40;2.20;;;;;;;;;;105328;1253;62848;-65
2023/02/14 01:19:00;;;;;;;2.30;2.10;;;;;;;;;;105415;1251;62725;-63
2023/02/14 01:21:30;;;;;;;2.80;2.00;;;;;;;;;;105358;1251;62750;-63
2023/02/14 01:23:59;;;;;;;2.30;2.10;;;;;;;;;;105317;1253;62815;-63
2023/02/14 01:26:29;;;;;;;2.40;2.20;;;;;;;;;;105265;1248;62894;-64
2023/02/14 01:29:02;;;;;;;2.10;2.00;;;;;;;;;;105297;1262;62738;-63
2023/02/14 01:31:31;;;;;;;2.80;2.20;;;;;;;;;;105304;1264;62844;-64
2023/02/14 01:33:59;;;;;;;2.80;2.00;;;;;;;;;;105574;1247;62758;-64
2023/02/14 01:36:31;;;;;;;3.20;2.10;;;;;;;;;;105269;1262;63012;-63
2023/02/14 01:39:01;;;;;;;2.80;2.20;;;;;;;;;;105426;1251;62736;-63
2023/02/14 01:41:31;;;;;;;2.50;2.30;;;;;;;;;;105285;1263;62601;-63
2023/02/14 01:44:06;;;;;;;3.10;2.40;;;;;;;;;;105168;1255;62804;-63
2023/02/14 01:46:35;;;;;;;2.40;2.10;;;;;;;;;;105338;1260;62853;-63
2023/02/14 01:49:07;;;;;;;2.40;2.20;;;;;;;;;;105417;1255;62948;-65
2023/02/14 01:51:37;;;;;;;3.00;2.20;;;;;;;;;;105238;1251;62796;-63
2023/02/14 01:54:05;;;;;;;2.30;2.10;;;;;;;;;;105387;1250;62855;-63
2023/02/14 01:56:34;;;;;;;2.90;2.40;;;;;;;;;;105299;1265;63196;-63
2023/02/14 01:59:04;;;;;;;2.10;1.90;;;;;;;;;;105224;1254;62836;-63
2023/02/14 02:01:32;;;;;;;1.90;1.80;;;;;;;;;;105373;1256;62735;-63
2023/02/14 02:04:24;;;;;;;2.60;2.00;;;;;;;;;;105477;1262;62810;-63
2023/02/14 02:06:53;;;;;;;2.60;2.30;;;;;;;;;;105208;1257;62729;-63
2023/02/14 02:09:38;;;;;;;2.60;1.90;;;;;;;;;;105298;1263;62853;-63
2023/02/14 02:12:06;;;;;;;2.90;2.50;;;;;;;;;;105314;1251;62827;-63
2023/02/14 02:14:37;;;;;;;2.40;2.10;;;;;;;;;;105272;1251;62844;-63
2023/02/14 02:17:09;;;;;;;2.20;1.90;;;;;;;;;;105203;1259;64414;-64
2023/02/14 02:19:38;;;;;;;3.00;2.70;;;;;;;;;;105067;1265;62759;-64
2023/02/14 02:22:25;;;;;;;2.80;2.60;;;;;;;;;;105246;1248;62956;-64
2023/02/14 02:24:59;;;;;;;2.80;2.50;;;;;;;;;;105243;1252;64455;-63
2023/02/14 02:27:34;;;;;;;3.10;2.50;;;;;;;;;;105303;1251;62711;-64
2023/02/14 02:30:16;;;;;;;2.90;2.50;;;;;;;;;;105317;1251;62796;-65
2023/02/14 02:33:03;;;;;;;2.60;2.40;;;;;;;;;;105222;1248;62869;-64
2023/02/14 02:35:44;;;;;;;4.40;2.40;;;;;;;;;;105209;1260;62809;-64
2023/02/14 02:38:21;;;;;;;2.70;2.50;;;;;;;;;;105441;1258;62828;-64
2023/02/14 02:40:53;;;;;;;2.70;2.50;;;;;;;;;;105270;1248;62834;-64
2023/02/14 02:43:40;;;;;;;3.00;2.70;;;;;;;;;;105141;1270;62825;-64
2023/02/14 02:53:01;;;;;;;4.90;2.50;;;;;;;;;;105370;1248;62843;-64
2023/02/14 02:54:54;;;;;;;3.40;3.00;;;;;;;;;;105113;1252;62820;-64
2023/02/14 02:57:24;;;;;;;3.30;2.50;;;;;;;;;;105309;1247;62763;-65
2023/02/14 02:59:52;;;;;;;2.80;2.50;;;;;;;;;;105205;1260;63234;-64
2023/02/14 03:05:32;;;;;;;4.80;2.50;;;;;;;;;;105119;1253;62847;-63
2023/02/14 03:08:00;;;;;;;3.80;2.70;;;;;;;;;;105437;1250;62850;-65
2023/02/14 03:10:34;;;;;;;3.30;2.40;;;;;;;;;;105327;1259;62719;-63
2023/02/14 03:13:08;;;;;;;3.60;2.90;;;;;;;;;;105323;1251;62742;-63
2023/02/14 03:15:36;;;;;;;2.70;2.50;;;;;;;;;;105323;1258;62729;-63
2023/02/14 03:18:12;;;;;;;2.20;2.00;;;;;;;;;;105195;1247;62841;-62
2023/02/14 03:20:54;;;;;;;2.40;2.10;;;;;;;;;;105166;1263;62838;-63
2023/02/14 03:23:27;;;;;;;2.60;2.40;;;;;;;;;;105417;1247;62847;-62
2023/02/14 03:25:56;;;;;;;2.50;2.30;;;;;;;;;;105752;1250;62726;-62
2023/02/14 03:28:34;;;;;;;3.30;3.00;;;;;;;;;;105220;1252;62859;-62
2023/02/14 03:31:02;;;;;;;;;;;;;;;;;;105360;1250;62816;-62
2023/02/14 03:33:32;;;;;;;2.50;2.30;;;;;;;;;;105343;1247;62845;-62
2023/02/14 03:36:03;;;;;;;2.70;2.40;;;;;;;;;;105236;1248;62802;-62
2023/02/14 03:38:31;;;;;;;3.20;2.70;;;;;;;;;;105255;1247;62758;-62
2023/02/14 03:41:00;;;;;;;2.70;2.10;;;;;;;;;;105110;1256;63285;-62
2023/02/14 03:43:33;;;;;;;3.00;2.10;;;;;;;;;;105138;1253;62860;-62
2023/02/14 03:46:21;;;;;;;4.00;2.90;;;;;;;;;;104827;1252;62860;-62
2023/02/14 03:48:50;;;;;;;2.40;2.10;;;;;;;;;;105329;1263;62840;-63
2023/02/14 03:51:19;;;;;;;3.00;1.90;;;;;;;;;;105339;1253;62867;-63
2023/02/14 03:53:48;;;;;;;1.70;1.60;;;;;;;;;;105349;1263;62501;-63
2023/02/14 03:56:21;;;;;;;2.00;1.80;;;;;;;;;;105247;1263;62093;-62
2023/02/14 03:58:50;;;;;;;3.50;1.80;;;;;;;;;;105699;1247;62813;-62
2023/02/14 04:01:19;;;;;;;2.20;2.00;;;;;;;;;;105411;1249;62834;-66
2023/02/14 04:03:48;;;;;;;2.00;1.70;;;;;;;;;;105498;1256;63273;-68
2023/02/14 04:06:16;;;;;;;2.10;1.80;;;;;;;;;;105163;1248;62830;-67
2023/02/14 04:08:45;;;;;;;2.00;1.70;;;;;;;;;;105348;1251;63388;-62
2023/02/14 04:11:13;;;;;;;2.80;1.70;;;;;;;;;;105298;1248;62749;-62
2023/02/14 04:13:41;;;;;;;2.20;2.00;;;;;;;;;;105336;1252;62821;-63
2023/02/14 04:16:10;;;;;;;1.70;1.60;;;;;;;;;;105411;1251;62799;-62
2023/02/14 04:21:26;;;;;;;2.90;1.90;;;;;;;;;;105349;1249;62216;-62
2023/02/14 04:23:54;;;;;;;3.10;2.10;;;;;;;;;;105309;1251;63156;-63
2023/02/14 04:26:22;;;;;;;3.60;1.90;;;;;;;;;;105267;1259;62799;-62
2023/02/14 04:28:51;;;;;;;1.40;1.30;;;;;;;;;;105295;1251;62889;-62
2023/02/14 04:31:19;;;;;;;1.90;1.70;;;;;;;;;;105335;1252;62792;-61
2023/02/14 04:33:50;;;;;;;2.30;1.80;;;;;;;;;;105327;1247;62808;-61
2023/02/14 04:36:18;;;;;;;2.90;1.70;;;;;;;;;;105239;1251;62801;-61
2023/02/14 04:38:46;;;;;;;3.60;1.60;;;;;;;;;;105319;1262;62818;-62
2023/02/14 04:41:14;;;;;;;1.80;1.50;;;;;;;;;;105440;1251;62735;-61
2023/02/14 04:43:42;;;;;;;2.40;1.80;;;;;;;;;;105311;1263;62277;-61
2023/02/14 04:46:10;;;;;;;2.00;1.70;;;;;;;;;;105460;1251;62791;-62
2023/02/14 04:48:38;;;;;;;3.00;2.20;;;;;;;;;;105313;1248;62825;-62
2023/02/14 04:51:07;;;;;;;2.90;2.00;;;;;;;;;;105335;1260;62729;-62
2023/02/14 04:53:38;;;;;;;3.10;2.20;;;;;;;;;;105258;1264;62738;-62
2023/02/14 04:56:07;;;;;;;2.90;2.10;;;;;;;;;;105443;1250;62902;-62
2023/02/14 04:58:36;;;;;;;4.30;2.60;;;;;;;;;;105505;1247;62248;-62
2023/02/14 05:01:04;;;;;;;3.40;2.60;;;;;;;;;;105503;1250;64724;-62
2023/02/14 05:03:32;;;;;;;3.60;2.60;;;;;;;;;;105416;1256;62745;-64
2023/02/14 05:06:00;;;;;;;4.10;2.50;;;;;;;;;;105328;1250;62726;-63
2023/02/14 05:08:28;;;;;;;3.20;2.30;;;;;;;;;;105387;1251;62719;-64
2023/02/14 05:10:57;;;;;;;2.00;1.70;;;;;;;;;;105323;1260;62817;-64
2023/02/14 05:13:25;;;;;;;2.60;1.90;;;;;;;;;;105268;1247;62790;-65
2023/02/14 05:15:54;;;;;;;2.30;2.10;;;;;;;;;;105492;1249;62831;-63
2023/02/14 05:18:23;;;;;;;2.50;1.70;;;;;;;;;;105391;1250;62818;-63
2023/02/14 05:20:51;;;;;;;2.60;1.80;;;;;;;;;;105296;1262;62157;-63
2023/02/14 05:23:20;;;;;;;2.30;1.70;;;;;;;;;;105381;1251;62806;-64
2023/02/14 05:25:48;;;;;;;2.40;1.80;;;;;;;;;;105230;1259;62838;-63
2023/02/14 05:28:17;;;;;;;3.00;1.70;;;;;;;;;;105379;1249;63153;-64
2023/02/14 05:30:45;;;;;;;3.70;1.80;;;;;;;;;;105303;1253;62818;-63
2023/02/14 05:33:13;;;;;;;1.70;1.50;;;;;;;;;;105292;1260;62667;-63
2023/02/14 05:35:42;;;;;;;3.60;2.00;;;;;;;;;;105332;1263;62030;-63
2023/02/14 05:38:12;;;;;;;1.90;1.70;;;;;;;;;;105284;1262;62696;-69
2023/02/14 05:40:40;;;;;;;2.40;1.70;;;;;;;;;;105312;1270;61680;-67
2023/02/14 05:43:08;;;;;;;2.40;1.80;;;;;;;;;;105577;1248;62658;-70
2023/02/14 05:45:37;;;;;;;1.70;1.50;;;;;;;;;;105345;1247;62749;-72
2023/02/14 05:48:06;;;;;;;1.90;1.60;;;;;;;;;;105372;1256;62750;-70
2023/02/14 05:50:34;;;;;;;1.90;1.50;;;;;;;;;;105220;1251;62883;-67
2023/02/14 05:53:03;;;;;;;1.70;1.30;;;;;;;;;;105337;1263;62841;-68
2023/02/14 05:55:32;;;;;;;3.00;1.80;;;;;;;;;;105589;1247;62788;-67
2023/02/14 05:58:02;;;;;;;2.60;1.50;;;;;;;;;;105871;1247;62707;-66
2023/02/14 06:00:30;;;;;;;2.30;1.60;;;;;;;;;;105488;1249;62736;-67
2023/02/14 06:02:59;;;;;;;2.70;1.80;;;;;;;;;;105427;1263;62730;-70
2023/02/14 06:05:27;;;;;;;2.20;2.00;;;;;;;;;;105513;1251;61803;-67
2023/02/14 06:07:55;;;;;;;3.40;1.80;;;;;;;;;;105335;1251;62185;-67
2023/02/14 06:10:23;;;;;;;2.50;1.90;;;;;;;;;;105437;1251;62146;-67
2023/02/14 06:12:53;;;;;;;2.80;1.80;;;;;;;;;;105474;1248;62242;-67
2023/02/14 06:15:22;;;;;;;1.80;1.40;;;;;;;;;;105294;1249;62364;-69
2023/02/14 06:17:51;;;;;;;2.00;1.60;;;;;;;;;;105292;1262;62466;-68
2023/02/14 06:20:20;;;;;;;2.80;1.80;;;;;;;;;;105545;1252;62677;-65
2023/02/14 06:24:29;;;;;;;1.90;1.60;;;;;;;;;;101951;1291;600816;-65
2023/02/14 06:26:58;;;;;;;2.80;1.70;;;;;;;;;;104282;1274;61250;-64
2023/02/14 06:29:26;;;;;;;2.30;1.90;;;;;;;;;;104191;1264;61370;-64
2023/02/14 06:31:55;;;;;;;1.80;1.30;;;;;;;;;;104235;1263;61378;-68
2023/02/14 06:34:23;;;;;;;1.80;1.40;;;;;;;;;;104261;1260;61385;-67
2023/02/14 06:36:51;;;;;;;1.80;1.40;;;;;;;;;;104282;1275;61439;-68
2023/02/14 06:39:20;;;;;;;2.10;1.50;;;;;;;;;;104459;1272;145492;-67
2023/02/14 06:41:48;;;;;;;2.50;1.60;;;;;;;;;;104677;1257;61285;-67
2023/02/14 06:44:16;;;;;;;2.10;1.50;;;;;;;;;;104801;1253;61684;-67
2023/02/14 06:46:45;;;;;;;3.00;1.70;;;;;;;;;;105447;1248;61349;-69
2023/02/14 06:49:13;;;;;;;2.40;1.40;;;;;;;;;;105474;1250;62031;-68
2023/02/14 06:51:41;;;;;;;3.30;1.60;;;;;;;;;;105347;1251;61444;-71
2023/02/14 06:54:09;;;;;;;2.30;1.30;;;;;;;;;;105183;1249;62034;-69
2023/02/14 06:56:37;;;;;;;4.40;2.10;;;;;;;;;;105480;1264;61996;-67
2023/02/14 06:59:06;;;;;;;2.20;1.60;;;;;;;;;;106004;1251;62001;-69
2023/02/14 07:01:34;;;;;;;2.70;1.60;;;;;;;;;;105335;1254;61976;-62
2023/02/14 07:04:03;;;;;;;2.00;1.80;;;;;;;;;;104886;1251;62123;-68
2023/02/14 07:06:31;;;;;;;1.50;1.40;;;;;;;;;;105399;1264;61914;-66
2023/02/14 07:08:59;;;;;;;2.10;1.70;;;;;;;;;;105585;1262;61355;-65
2023/02/14 07:11:28;;;;;;;1.60;1.50;;;;;;;;;;105711;1248;61272;-67
2023/02/14 07:13:56;;;;;;;2.30;1.40;;;;;;;;;;105712;1248;61998;-67
2023/02/14 07:16:24;;;;;;;1.60;1.40;;;;;;;;;;105221;1257;61976;-67
2023/02/14 07:18:53;;;;;;;2.60;1.50;;;;;;;;;;105832;1250;61992;-65
2023/02/14 07:21:21;;;;;;;1.30;1.20;;;;;;;;;;105461;1253;62032;-68
2023/02/14 07:23:49;;;;;;;2.60;1.50;;;;;;;;;;105545;1252;62439;-66
2023/02/14 07:26:20;;;;;;;2.70;1.80;;;;;;;;;;105301;1260;62012;-67
2023/02/14 07:28:50;;;;;;;3.10;1.30;;;;;;;;;;105002;1260;62012;-67
2023/02/14 07:31:22;;;;;;;3.40;1.70;;;;;;;;;;105364;1250;62001;-66
2023/02/14 07:33:51;;;;;;;2.10;1.40;;;;;;;;;;105464;1250;62089;-65
2023/02/14 07:36:19;;;;;;;2.60;1.20;;;;;;;;;;105446;1251;61868;-65
2023/02/14 07:38:48;;;;;;;1.20;1.10;;;;;;;;;;105261;1251;61890;-68
2023/02/14 07:41:17;;;;;;;1.80;0.90;;;;;;;;;;105771;1251;61867;-67
2023/02/14 07:43:45;;;;;;;2.50;1.30;;;;;;;;;;105602;1250;62063;-65
2023/02/14 07:46:16;;;;;;;2.00;1.20;;;;;;;;;;105700;1250;61747;-61
2023/02/14 07:48:44;;;;;;;1.20;1.00;;;;;;;;;;105606;1253;61963;-61
2023/02/14 07:51:12;;;;;;;2.00;1.10;;;;;;;;;;105784;1249;62294;-61
2023/02/14 07:53:40;;;;;;;1.50;1.20;;;;;;;;;;105405;1249;62018;-61
2023/02/14 07:56:08;;;;;;;3.10;1.30;;;;;;;;;;105480;1253;61989;-60
2023/02/14 07:58:37;;;;;;;1.80;1.30;;;;;;;;;;105256;1253;61919;-59
2023/02/14 08:01:05;;;;;;;2.80;1.40;;;;;;;;;;105466;1254;61977;-59
2023/02/14 08:03:33;;;;;;;3.00;1.10;;;;;;;;;;105789;1257;61865;-60
2023/02/14 08:06:02;;;;;;;2.30;1.30;;;;;;;;;;105650;1251;62021;-60
2023/02/14 08:08:30;;;;;;;2.30;1.10;;;;;;;;;;105881;1249;61856;-60
2023/02/14 08:10:58;;;;;;;1.80;1.10;;;;;;;;;;106133;1250;61980;-59
2023/02/14 08:13:27;;;;;;;1.60;1.00;;;;;;;;;;105610;1250;61389;-60
2023/02/14 08:16:04;;;;;;;3.50;1.10;;;;;;;;;;105840;1250;62018;-66
2023/02/14 08:18:36;;;;;;;1.10;1.00;;;;;;;;;;105343;1253;61966;-67
2023/02/14 08:21:05;;;;;;;2.20;1.00;;;;;;;;;;105298;1250;61986;-67
2023/02/14 08:23:33;;;;;;;2.30;1.20;;;;;;;;;;105403;1252;61996;-59
2023/02/14 08:26:02;;;;;;;2.10;1.10;;;;;;;;;;105605;1250;62087;-60
2023/02/14 08:28:35;;;;;;;1.30;0.90;;;;;;;;;;105464;1250;62403;-60
2023/02/14 08:31:03;;;;;;;2.00;1.10;;;;;;;;;;105057;1257;61999;-59
2023/02/14 08:33:31;;;;;;;2.50;1.20;;;;;;;;;;105041;1264;62017;-60
2023/02/14 08:36:00;;;;;;;2.00;0.90;;;;;;;;;;105080;1250;61993;-60
2023/02/14 08:38:29;;;;;;;2.10;0.90;;;;;;;;;;105700;1249;61985;-61
2023/02/14 08:41:00;;;;;;;5.50;1.00;;;;;;;;;;105389;1253;62005;-66
2023/02/14 08:43:32;;;;;;;2.00;1.30;;;;;;;;;;105120;1253;62705;-67
2023/02/14 08:46:01;;;;;;;1.60;1.00;;;;;;;;;;105584;1251;61928;-67
2023/02/14 08:48:30;;;;;;;2.10;1.00;;;;;;;;;;105278;1250;61954;-67
2023/02/14 08:51:04;;;;;;;1.40;1.10;;;;;;;;;;105701;1251;62233;-64
2023/02/14 08:53:32;;;;;;;1.20;0.90;;;;;;;;;;105148;1251;61975;-66
2023/02/14 08:56:04;;;;;;;1.80;1.10;;;;;;;;;;105524;1250;61939;-68
2023/02/14 08:58:32;;;;;;;2.20;1.10;;;;;;;;;;105442;1254;61996;-66
2023/02/14 09:01:07;;;;;;;1.90;1.30;;;;;;;;;;105709;1250;62006;-66
2023/02/14 09:03:36;;;;;;;1.60;0.80;;;;;;;;;;105723;1251;61924;-64
2023/02/14 09:06:06;;;;;;;2.80;1.40;;;;;;;;;;105631;1251;61435;-63
2023/02/14 09:08:37;;;;;;;1.60;1.10;;;;;;;;;;105638;1250;61916;-65
2023/02/14 09:11:09;;;;;;;1.00;0.90;;;;;;;;;;105230;1250;61946;-65
2023/02/14 09:13:38;;;;;;;1.90;1.20;;;;;;;;;;105663;1250;62014;-64
2023/02/14 09:16:06;;;;;;;1.60;0.90;;;;;;;;;;105669;1250;61972;-64
2023/02/14 09:18:34;;;;;;;1.50;1.10;;;;;;;;;;105361;1253;61986;-65
2023/02/14 09:21:06;;;;;;;3.30;1.40;;;;;;;;;;105101;1250;61982;-64
2023/02/14 09:23:34;;;;;;;2.50;1.30;;;;;;;;;;106038;1250;61877;-64
2023/02/14 09:26:07;;;;;;;1.70;1.20;;;;;;;;;;105561;1250;61881;-64
2023/02/14 09:28:35;;;;;;;1.20;1.10;;;;;;;;;;105369;1248;62339;-65
2023/02/14 09:31:10;;;;;;;1.80;1.10;;;;;;;;;;105534;1250;61976;-65
2023/02/14 09:36:26;;;;;;;1.90;1.00;;;;;;;;;;105358;1253;61977;-65
2023/02/14 09:38:55;;;;;;;2.60;1.10;;;;;;;;;;105164;1263;61976;-64
2023/02/14 09:41:31;;;;;;;1.50;1.40;;;;;;;;;;105757;1250;61998;-64
2023/02/14 09:44:04;;;;;;;2.80;1.50;;;;;;;;;;106048;1247;61887;-64
2023/02/14 09:46:39;;;;;;;2.30;1.40;;;;;;;;;;105943;1249;61452;-64
2023/02/14 09:49:14;;;;;;;2.50;1.00;;;;;;;;;;105577;1248;61872;-64
2023/02/14 09:51:44;;;;;;;1.40;0.80;;;;;;;;;;105409;1249;61960;-61
2023/02/14 09:54:13;;;;;;;2.30;1.10;;;;;;;;;;105772;1250;63235;-62
2023/02/14 09:56:47;;;;;;;1.10;0.90;;;;;;;;;;105691;1248;61814;-66
2023/02/14 09:59:35;;;;;;;1.00;0.90;;;;;;;;;;105654;1253;61921;-65
2023/02/14 10:02:03;;;;;;;2.90;1.20;;;;;;;;;;105370;1253;61858;-64
2023/02/14 10:04:38;;;;;;;2.80;1.50;;;;;;;;;;105775;1248;62016;-64
2023/02/14 10:07:16;;;;;;;3.40;1.10;;;;;;;;;;105543;1252;61291;-65
2023/02/14 10:09:44;;;;;;;;;;;;;;;;;;105467;1250;61052;-69
2023/02/14 10:12:36;;;;;;;1.90;1.20;;;;;;;;;;105612;1247;61311;-66
2023/02/14 10:15:07;;;;;;;2.30;1.00;;;;;;;;;;105344;1253;61281;-64
2023/02/14 10:17:43;;;;;;;1.60;1.00;;;;;;;;;;105499;1247;60538;-65
2023/02/14 10:20:23;;;;;;;2.10;1.20;;;;;;;;;;105620;1247;61416;-64
2023/02/14 10:23:02;;;;;;;2.30;1.10;;;;;;;;;;105345;1253;61729;-64
2023/02/14 10:25:53;;;;;;;2.60;1.40;;;;;;;;;;105510;1253;61413;-62
2023/02/14 10:28:24;;;;;;;3.20;1.20;;;;;;;;;;105193;1254;61669;-65
2023/02/14 10:30:59;;;;;;;2.90;1.30;;;;;;;;;;105825;1250;61830;-65
2023/02/14 10:33:28;;;;;;;2.00;1.20;;;;;;;;;;105631;1247;61921;-65
2023/02/14 10:36:03;;;;;;;3.80;1.30;;;;;;;;;;105702;1253;62779;-70
2023/02/14 10:38:41;;;;;;;3.70;1.40;;;;;;;;;;105628;1250;62422;-69
2023/02/14 10:41:10;;;;;;;3.10;1.30;;;;;;;;;;105332;1248;62456;-69
2023/02/14 10:44:04;;;;;;;5.40;1.60;;;;;;;;;;105392;1247;62454;-68
2023/02/14 10:46:38;;;;;;;2.50;1.30;;;;;;;;;;105455;1253;63065;-69
2023/02/14 10:49:19;;;;;;;2.20;1.20;;;;;;;;;;105762;1248;62878;-68
2023/02/14 10:51:54;;;;;;;1.50;1.10;;;;;;;;;;105560;1248;62517;-66
2023/02/14 10:54:23;;;;;;;3.50;1.00;;;;;;;;;;105432;1254;62575;-64
2023/02/14 10:56:57;;;;;;;2.30;1.20;;;;;;;;;;105388;1247;62826;-64
2023/02/14 10:59:31;;;;;;;2.20;1.00;;;;;;;;;;105291;1248;62671;-64
2023/02/14 11:01:59;;;;;;;4.10;1.20;;;;;;;;;;105236;1248;62801;-64
2023/02/14 11:04:28;;;;;;;4.80;1.70;;;;;;;;;;104850;1266;62441;-63
2023/02/14 11:06:56;;;;;;;2.00;1.10;;;;;;;;;;105215;1247;62588;-65
2023/02/14 11:09:25;;;;;;;2.80;1.30;;;;;;;;;;105549;1253;62393;-64
2023/02/14 11:11:54;;;;;;;2.30;1.10;;;;;;;;;;105409;1253;62801;-64
2023/02/14 11:14:24;;;;;;;2.70;1.00;;;;;;;;;;105065;1250;62367;-70
2023/02/14 11:16:53;;;;;;;0.90;0.90;;;;;;;;;;105478;1264;62322;-66
2023/02/14 11:19:28;;;;;;;1.50;0.80;;;;;;;;;;105661;1252;62296;-67
2023/02/14 11:21:57;;;;;;;1.40;0.80;;;;;;;;;;105167;1248;62328;-67
2023/02/14 11:24:27;;;;;;;1.00;0.80;;;;;;;;;;105421;1253;61803;-69
2023/02/14 11:26:59;;;;;;;2.00;0.90;;;;;;;;;;105366;1247;61804;-67
2023/02/14 11:29:29;;;;;;;1.60;1.30;;;;;;;;;;105162;1255;61775;-67
2023/02/14 11:32:05;;;;;;;2.20;1.00;;;;;;;;;;105619;1252;61666;-66
2023/02/14 11:34:35;;;;;;;1.30;0.90;;;;;;;;;;105300;1248;61618;-67
2023/02/14 11:37:14;;;;;;;2.20;1.10;;;;;;;;;;105682;1248;61743;-68
2023/02/14 11:39:43;;;;;;;2.00;0.90;;;;;;;;;;105512;1253;61685;-67
2023/02/14 11:42:11;;;;;;;1.80;1.00;;;;;;;;;;105608;1248;61743;-67
2023/02/14 11:44:52;;;;;;;1.60;0.80;;;;;;;;;;105404;1249;61586;-68
2023/02/14 11:47:27;;;;;;;1.80;0.90;;;;;;;;;;105777;1248;61746;-68
2023/02/14 11:49:56;;;;;;;1.60;0.80;;;;;;;;;;105605;1252;61763;-68
2023/02/14 11:52:27;;;;;;;1.30;0.80;;;;;;;;;;105598;1252;61813;-68
2023/02/14 11:54:56;;;;;;;0.90;0.70;;;;;;;;;;105514;1253;61463;-68
2023/02/14 11:57:30;;;;;;;1.90;0.80;;;;;;;;;;105479;1250;61673;-68
2023/02/14 12:00:00;;;;;;;1.60;0.80;;;;;;;;;;105585;1248;61641;-69
2023/02/14 12:02:39;;;;;;;2.10;0.90;;;;;;;;;;105594;1252;61701;-67
2023/02/14 12:05:26;;;;;;;2.20;0.80;;;;;;;;;;105282;1253;61573;-68
2023/02/14 12:07:55;;;;;;;1.50;0.90;;;;;;;;;;105695;1252;61578;-68
2023/02/14 12:10:26;;;;;;;1.60;0.60;;;;;;;;;;105375;1253;61701;-68
2023/02/14 12:12:57;;;;;;;1.20;0.70;;;;;;;;;;105432;1255;61145;-68
2023/02/14 12:15:26;;;;;;;1.00;0.70;;;;;;;;;;105442;1265;61716;-68
2023/02/14 12:18:13;;;;;;;3.10;0.80;;;;;;;;;;105694;1249;61717;-69
2023/02/14 12:20:48;;;;;;;2.80;1.70;;;;;;;;;;105564;1251;61637;-67
2023/02/14 12:23:16;;;;;;;3.40;1.40;;;;;;;;;;105487;1253;61691;-68
2023/02/14 12:25:49;;;;;;;2.30;1.20;;;;;;;;;;105693;1248;61881;-67
2023/02/14 12:28:27;;;;;;;2.00;0.80;;;;;;;;;;105596;1252;61631;-69
2023/02/14 12:30:55;;;;;;;1.00;0.80;;;;;;;;;;105479;1249;61695;-67
2023/02/14 12:33:26;;;;;;;0.70;0.60;;;;;;;;;;105569;1247;61868;-70
2023/02/14 12:36:02;;;;;;;2.20;1.20;;;;;;;;;;105704;1247;61714;-69
2023/02/14 12:38:38;;;;;;;1.80;1.00;;;;;;;;;;105784;1250;61618;-71
2023/02/14 12:41:06;;;;;;;1.10;1.00;;;;;;;;;;105497;1253;61800;-69
2023/02/14 12:43:42;;;;;;;1.30;1.10;;;;;;;;;;105438;1247;61669;-68
2023/02/14 12:46:29;;;;;;;0.90;0.80;;;;;;;;;;105571;1264;61694;-67
2023/02/14 12:49:09;;;;;;;1.10;0.80;;;;;;;;;;105681;1247;61605;-68
2023/02/14 12:51:57;;;;;;;2.50;1.00;;;;;;;;;;105857;1248;61639;-66
2023/02/14 12:54:44;;;;;;;1.90;1.10;;;;;;;;;;105605;1253;61571;-68
2023/02/14 12:57:12;;;;;;;1.10;0.90;;;;;;;;;;105407;1254;61449;-70
2023/02/14 12:59:59;;;;;;;2.50;1.20;;;;;;;;;;105502;1250;61761;-70
2023/02/14 13:02:34;;;;;;;2.50;1.40;;;;;;;;;;105667;1259;61655;-61
2023/02/14 13:05:05;;;;;;;2.30;1.00;;;;;;;;;;105309;1248;64222;-63
2023/02/14 13:07:38;;;;;;;1.40;0.90;;;;;;;;;;105498;1253;61698;-62
2023/02/14 13:10:36;;;;;;;2.60;1.40;;;;;;;;;;105430;1248;61802;-69
2023/02/14 13:13:06;;;;;;;1.40;0.90;;;;;;;;;;104558;1260;61853;-62
2023/02/14 13:15:38;;;;;;;1.20;0.80;;;;;;;;;;105148;1250;61598;-61
2023/02/14 13:18:28;;;;;;;1.70;0.70;;;;;;;;;;105231;1259;61631;-63
2023/02/14 13:20:57;;;;;;;2.00;0.70;;;;;;;;;;105269;1260;61700;-63
2023/02/14 13:23:28;;;;;;;1.30;0.80;;;;;;;;;;105327;1253;61586;-63
2023/02/14 13:26:16;;;;;;;1.10;0.90;;;;;;;;;;105322;1260;61096;-63
2023/02/14 13:28:51;;;;;;;2.90;1.10;;;;;;;;;;105245;1260;61585;-62
2023/02/14 13:31:19;;;;;;;0.90;0.80;;;;;;;;;;105157;1252;61622;-63
2023/02/14 13:33:53;;;;;;;1.60;0.80;;;;;;;;;;105273;1264;61643;-62
2023/02/14 13:36:22;;;;;;;1.40;0.80;;;;;;;;;;105371;1252;61714;-63
2023/02/14 13:38:52;;;;;;;0.90;0.70;;;;;;;;;;104744;1258;61692;-63
2023/02/14 13:41:25;;;;;;;1.70;0.90;;;;;;;;;;105182;1250;61592;-62
2023/02/14 13:43:58;;;;;;;1.90;0.70;;;;;;;;;;105530;1253;63650;-63
2023/02/14 13:46:34;;;;;;;1.80;0.70;;;;;;;;;;105756;1249;61707;-63
2023/02/14 13:49:15;;;;;;;1.30;0.80;;;;;;;;;;105666;1247;61701;-61
2023/02/14 13:51:47;;;;;;;0.80;0.60;;;;;;;;;;105384;1253;61707;-64
2023/02/14 13:54:27;;;;;;;1.40;0.80;;;;;;;;;;105701;1250;61611;-64
2023/02/14 13:56:59;;;;;;;1.40;0.70;;;;;;;;;;105349;1248;61701;-61
2023/02/14 13:59:32;;;;;;;1.90;0.80;;;;;;;;;;105523;1247;61688;-64
2023/02/14 14:02:20;;;;;;;0.90;0.80;;;;;;;;;;105504;1264;61101;-62
2023/02/14 14:04:49;;;;;;;3.40;1.10;;;;;;;;;;105551;1248;61733;-74
2023/02/14 14:07:19;;;;;;;1.10;1.00;;;;;;;;;;105832;1254;61609;-71
2023/02/14 14:09:47;;;;;;;1.70;0.80;;;;;;;;;;105494;1247;61691;-71
2023/02/14 14:12:25;;;;;;;1.50;0.70;;;;;;;;;;105427;1253;61691;-73
2023/02/14 14:15:04;;;;;;;2.00;1.10;;;;;;;;;;105662;1251;61705;-73
2023/02/14 14:17:35;;;;;;;2.20;0.70;;;;;;;;;;105847;1250;60963;-72
2023/02/14 14:20:23;;;;;;;1.10;0.80;;;;;;;;;;105888;1253;61585;-73
2023/02/14 14:22:53;;;;;;;1.70;0.70;;;;;;;;;;105438;1251;61720;-71
2023/02/14 14:25:31;;;;;;;0.90;0.80;;;;;;;;;;105740;1247;61703;-73
2023/02/14 14:27:59;;;;;;;0.60;0.60;;;;;;;;;;105412;1253;61569;-71
2023/02/14 14:30:30;;;;;;;1.70;1.00;;;;;;;;;;105336;1249;61749;-73
2023/02/14 14:33:12;;;;;;;0.50;0.40;;;;;;;;;;105647;1253;61698;-72
2023/02/14 14:35:50;;;;;;;0.90;0.80;;;;;;;;;;105968;1252;61583;-72
2023/02/14 14:38:19;;;;;;;0.70;0.70;;;;;;;;;;105769;1252;61614;-71
2023/02/14 14:40:47;;;;;;;1.70;0.90;;;;;;;;;;105402;1253;61682;-72
2023/02/14 14:43:23;;;;;;;1.60;0.80;;;;;;;;;;105321;1264;61615;-69
2023/02/14 14:45:52;;;;;;;1.40;0.70;;;;;;;;;;105375;1264;61685;-70
2023/02/14 14:48:23;;;;;;;1.50;1.00;;;;;;;;;;105477;1252;61572;-73
2023/02/14 14:50:51;;;;;;;1.20;1.10;;;;;;;;;;105334;1253;61695;-72
2023/02/14 14:53:20;;;;;;;0.90;0.80;;;;;;;;;;105278;1247;61724;-70
2023/02/14 14:55:50;;;;;;;1.90;0.80;;;;;;;;;;105551;1253;61669;-67
2023/02/14 14:58:37;;;;;;;2.50;1.20;;;;;;;;;;105495;1253;61641;-67
2023/02/14 15:01:09;;;;;;;1.30;0.80;;;;;;;;;;105386;1250;61682;-69
2023/02/14 15:03:38;;;;;;;1.40;0.70;;;;;;;;;;105667;1253;61683;-64
2023/02/14 15:06:16;;;;;;;5.00;1.00;;;;;;;;;;105268;1252;61724;-64
2023/02/14 15:08:45;;;;;;;1.20;0.80;;;;;;;;;;105390;1253;62413;-65
2023/02/14 15:13:48;;;;;;;1.00;0.70;;;;;;;;;;105780;1252;61580;-62
2023/02/14 15:14:07;;;;;;;1.10;0.70;;;;;;;;;;105179;1253;61101;-63
2023/02/14 15:16:39;;;;;;;1.00;0.90;;;;;;;;;;105564;1253;61582;-64